createdAt,value
2016-09-12T00:00:42.507Z,0
2016-09-12T00:01:42.479Z,0
2016-09-12T00:02:42.471Z,0
2016-09-12T00:03:42.471Z,0
2016-09-12T00:04:42.490Z,0
2016-09-12T00:05:42.492Z,0
2016-09-12T00:06:42.498Z,0
2016-09-12T00:07:43.188Z,0
2016-09-12T00:08:42.485Z,0
2016-09-12T00:09:42.808Z,0
2016-09-12T00:10:42.533Z,0
2016-09-12T00:11:42.497Z,0
2016-09-12T00:12:42.508Z,0
2016-09-12T00:13:43.143Z,0
2016-09-12T00:14:42.896Z,0
2016-09-12T00:15:42.528Z,0
2016-09-12T00:16:42.504Z,0
2016-09-12T00:17:42.498Z,0
2016-09-12T00:18:42.551Z,0
2016-09-12T00:19:42.521Z,0
2016-09-12T00:20:42.519Z,0
2016-09-12T00:21:42.677Z,0
2016-09-12T00:22:42.582Z,0
2016-09-12T00:23:42.531Z,0
2016-09-12T00:24:42.867Z,0
2016-09-12T00:25:43.163Z,0
2016-09-12T00:26:43.043Z,0
2016-09-12T00:27:42.844Z,0
2016-09-12T00:28:42.850Z,0
2016-09-12T00:29:42.588Z,0
2016-09-12T00:30:42.822Z,0
2016-09-12T00:31:42.884Z,0
2016-09-12T00:32:42.536Z,0
2016-09-12T00:33:42.890Z,0
2016-09-12T00:34:42.549Z,0
2016-09-12T00:35:43.175Z,0
2016-09-12T00:36:42.623Z,0
2016-09-12T00:37:42.610Z,0
2016-09-12T00:38:43.190Z,0
2016-09-12T00:39:42.894Z,0
2016-09-12T00:40:42.637Z,0
2016-09-12T00:41:42.875Z,0
2016-09-12T00:42:42.585Z,0
2016-09-12T00:43:42.580Z,0
2016-09-12T00:44:42.595Z,0
2016-09-12T00:45:42.879Z,0
2016-09-12T00:46:42.578Z,0
2016-09-12T00:47:42.595Z,0
2016-09-12T00:48:42.592Z,0
2016-09-12T00:49:42.591Z,0
2016-09-12T00:50:42.836Z,0
2016-09-12T00:51:42.647Z,0
2016-09-12T00:52:42.593Z,0
2016-09-12T00:53:42.666Z,0
2016-09-12T00:54:42.620Z,0
2016-09-12T00:55:42.593Z,0
2016-09-12T00:56:42.592Z,0
2016-09-12T00:57:42.639Z,0
2016-09-12T00:58:42.687Z,0
2016-09-12T00:59:42.881Z,0
2016-09-12T01:00:42.613Z,0
2016-09-12T01:01:42.962Z,0
2016-09-12T01:02:42.669Z,0
2016-09-12T01:03:42.611Z,0
2016-09-12T01:04:42.925Z,0
2016-09-12T01:05:42.937Z,0
2016-09-12T01:06:42.621Z,0
2016-09-12T01:07:42.624Z,0
2016-09-12T01:08:42.937Z,0
2016-09-12T01:09:43.264Z,0
2016-09-12T01:10:42.955Z,0
2016-09-12T01:11:42.723Z,0
2016-09-12T01:12:42.659Z,0
2016-09-12T01:13:42.642Z,0
2016-09-12T01:14:42.669Z,0
2016-09-12T01:15:43.033Z,0
2016-09-12T01:16:42.663Z,0
2016-09-12T01:17:43.297Z,0
2016-09-12T01:18:42.777Z,0
2016-09-12T01:19:42.695Z,0
2016-09-12T01:20:42.656Z,0
2016-09-12T01:21:43.313Z,0
2016-09-12T01:22:42.672Z,0
2016-09-12T01:23:42.668Z,0
2016-09-12T01:24:42.992Z,0
2016-09-12T01:25:42.684Z,0
2016-09-12T01:26:42.722Z,0
2016-09-12T01:27:42.724Z,0
2016-09-12T01:28:42.682Z,0
2016-09-12T01:29:42.693Z,0
2016-09-12T01:30:42.681Z,0
2016-09-12T01:31:42.705Z,0
2016-09-12T01:32:42.682Z,0
2016-09-12T01:33:42.772Z,0
2016-09-12T01:34:42.705Z,0
2016-09-12T01:35:42.684Z,0
2016-09-12T01:36:42.966Z,0
2016-09-12T01:37:42.833Z,0
2016-09-12T01:38:42.689Z,0
2016-09-12T01:39:42.706Z,0
2016-09-12T01:40:43.416Z,0
2016-09-12T01:41:42.834Z,0
2016-09-12T01:42:42.951Z,0
2016-09-12T01:43:43.010Z,0
2016-09-12T01:44:42.710Z,0
2016-09-12T01:45:43.133Z,0
2016-09-12T01:46:42.721Z,0
2016-09-12T01:47:42.726Z,0
2016-09-12T01:48:42.725Z,0
2016-09-12T01:49:42.729Z,0
2016-09-12T01:50:42.727Z,0
2016-09-12T01:51:42.815Z,0
2016-09-12T01:52:42.849Z,0
2016-09-12T01:53:42.724Z,0
2016-09-12T01:54:42.735Z,0
2016-09-12T01:55:42.728Z,0
2016-09-12T01:56:43.050Z,0
2016-09-12T01:57:43.049Z,0
2016-09-12T01:58:42.775Z,0
2016-09-12T01:59:42.744Z,0
2016-09-12T02:00:42.756Z,0
2016-09-12T02:01:43.069Z,0
2016-09-12T02:02:43.080Z,0
2016-09-12T02:03:42.856Z,0
2016-09-12T02:04:43.084Z,0
2016-09-12T02:05:43.087Z,0
2016-09-12T02:06:43.070Z,0
2016-09-12T02:07:42.758Z,0
2016-09-12T02:08:42.774Z,0
2016-09-12T02:09:43.092Z,0
2016-09-12T02:10:42.785Z,0
2016-09-12T02:11:42.766Z,0
2016-09-12T02:12:43.083Z,0
2016-09-12T02:13:42.916Z,0
2016-09-12T02:14:42.774Z,0
2016-09-12T02:15:43.026Z,0
2016-09-12T02:16:42.823Z,0
2016-09-12T02:17:43.425Z,0
2016-09-12T02:18:42.935Z,0
2016-09-12T02:19:43.190Z,0
2016-09-12T02:20:42.785Z,0
2016-09-12T02:21:42.788Z,0
2016-09-12T02:22:43.320Z,0
2016-09-12T02:23:42.790Z,0
2016-09-12T02:24:42.792Z,0
2016-09-12T02:25:42.827Z,0
2016-09-12T02:26:42.794Z,0
2016-09-12T02:27:42.799Z,0
2016-09-12T02:28:43.119Z,0
2016-09-12T02:29:42.805Z,0
2016-09-12T02:30:42.798Z,0
2016-09-12T02:31:42.841Z,0
2016-09-12T02:32:42.831Z,0
2016-09-12T02:33:43.701Z,0
2016-09-12T02:34:43.167Z,0
2016-09-12T02:35:42.836Z,0
2016-09-12T02:36:42.927Z,0
2016-09-12T02:37:42.835Z,0
2016-09-12T02:38:43.139Z,0
2016-09-12T02:39:42.949Z,0
2016-09-12T02:40:42.820Z,0
2016-09-12T02:41:42.842Z,0
2016-09-12T02:42:42.835Z,0
2016-09-12T02:43:42.847Z,0
2016-09-12T02:44:43.169Z,0
2016-09-12T02:45:42.849Z,0
2016-09-12T02:46:43.154Z,0
2016-09-12T02:47:42.854Z,0
2016-09-12T02:48:42.886Z,0
2016-09-12T02:49:42.865Z,0
2016-09-12T02:50:42.869Z,0
2016-09-12T02:51:43.176Z,0
2016-09-12T02:52:42.885Z,0
2016-09-12T02:53:42.855Z,0
2016-09-12T02:54:42.870Z,0
2016-09-12T02:55:42.844Z,0
2016-09-12T02:56:42.865Z,0
2016-09-12T02:57:42.866Z,0
2016-09-12T02:58:43.213Z,0
2016-09-12T02:59:42.898Z,0
2016-09-12T03:00:42.870Z,0
2016-09-12T03:01:42.867Z,0
2016-09-12T03:02:42.869Z,0
2016-09-12T03:03:42.873Z,0
2016-09-12T03:04:42.870Z,0
2016-09-12T03:05:42.995Z,0
2016-09-12T03:06:43.196Z,0
2016-09-12T03:07:42.897Z,0
2016-09-12T03:08:42.891Z,0
2016-09-12T03:09:42.890Z,0
2016-09-12T03:10:42.973Z,0
2016-09-12T03:11:43.265Z,0
2016-09-12T03:12:42.929Z,0
2016-09-12T03:13:43.342Z,0
2016-09-12T03:14:42.928Z,0
2016-09-12T03:15:43.251Z,0
2016-09-12T03:16:42.911Z,0
2016-09-12T03:17:43.234Z,0
2016-09-12T03:18:43.238Z,0
2016-09-12T03:19:42.925Z,0
2016-09-12T03:20:43.263Z,0
2016-09-12T03:21:43.016Z,0
2016-09-12T03:22:42.920Z,0
2016-09-12T03:23:43.042Z,0
2016-09-12T03:24:42.959Z,0
2016-09-12T03:25:42.937Z,0
2016-09-12T03:26:43.248Z,0
2016-09-12T03:27:43.276Z,0
2016-09-12T03:28:43.273Z,0
2016-09-12T03:29:43.582Z,0
2016-09-12T03:30:42.958Z,0
2016-09-12T03:31:42.953Z,0
2016-09-12T03:32:42.932Z,0
2016-09-12T03:33:43.360Z,0
2016-09-12T03:34:42.979Z,0
2016-09-12T03:35:42.935Z,0
2016-09-12T03:36:42.978Z,0
2016-09-12T03:37:42.957Z,0
2016-09-12T03:38:42.945Z,0
2016-09-12T03:39:42.934Z,0
2016-09-12T03:40:43.275Z,0
2016-09-12T03:41:42.953Z,0
2016-09-12T03:42:43.277Z,0
2016-09-12T03:43:43.031Z,0
2016-09-12T03:44:42.963Z,0
2016-09-12T03:45:43.323Z,0
2016-09-12T03:46:42.989Z,0
2016-09-12T03:47:42.960Z,0
2016-09-12T03:48:42.958Z,0
2016-09-12T03:49:42.968Z,0
2016-09-12T03:50:42.965Z,0
2016-09-12T03:51:42.972Z,0
2016-09-12T03:52:42.970Z,0
2016-09-12T03:53:42.975Z,0
2016-09-12T03:54:43.035Z,0
2016-09-12T03:55:43.295Z,0
2016-09-12T03:56:42.984Z,0
2016-09-12T03:57:42.982Z,0
2016-09-12T03:58:42.983Z,0
2016-09-12T03:59:42.997Z,0
2016-09-12T04:00:43.086Z,0
2016-09-12T04:01:43.083Z,0
2016-09-12T04:02:42.990Z,0
2016-09-12T04:03:43.430Z,0
2016-09-12T04:04:43.008Z,0
2016-09-12T04:05:43.327Z,0
2016-09-12T04:06:43.027Z,0
2016-09-12T04:07:43.037Z,0
2016-09-12T04:08:43.388Z,0
2016-09-12T04:09:42.999Z,0
2016-09-12T04:10:42.995Z,0
2016-09-12T04:11:43.625Z,0
2016-09-12T04:12:43.343Z,0
2016-09-12T04:13:43.089Z,0
2016-09-12T04:14:43.401Z,0
2016-09-12T04:15:43.263Z,0
2016-09-12T04:16:43.029Z,0
2016-09-12T04:17:44.173Z,0
2016-09-12T04:18:43.025Z,0
2016-09-12T04:19:43.029Z,4
2016-09-12T04:20:43.362Z,4
2016-09-12T04:21:43.023Z,4
2016-09-12T04:22:43.049Z,4
2016-09-12T04:23:43.036Z,0
2016-09-12T04:24:43.026Z,0
2016-09-12T04:25:43.051Z,4
2016-09-12T04:26:43.047Z,4
2016-09-12T04:27:43.030Z,4
2016-09-12T04:28:43.098Z,4
2016-09-12T04:29:43.026Z,4
2016-09-12T04:30:43.046Z,8
2016-09-12T04:31:43.051Z,8
2016-09-12T04:32:43.081Z,8
2016-09-12T04:33:43.053Z,12
2016-09-12T04:34:43.046Z,8
2016-09-12T04:35:43.128Z,12
2016-09-12T04:36:43.118Z,16
2016-09-12T04:37:43.226Z,20
2016-09-12T04:38:43.501Z,20
2016-09-12T04:39:43.062Z,24
2016-09-12T04:40:43.382Z,28
2016-09-12T04:41:43.052Z,36
2016-09-12T04:42:43.051Z,40
2016-09-12T04:43:43.115Z,44
2016-09-12T04:44:43.071Z,52
2016-09-12T04:45:43.092Z,60
2016-09-12T04:46:43.116Z,68
2016-09-12T04:47:43.075Z,80
2016-09-12T04:48:43.073Z,84
2016-09-12T04:49:43.066Z,96
2016-09-12T04:50:43.073Z,112
2016-09-12T04:51:43.434Z,124
2016-09-12T04:52:43.412Z,140
2016-09-12T04:53:43.100Z,156
2016-09-12T04:54:43.081Z,172
2016-09-12T04:55:43.082Z,192
2016-09-12T04:56:43.100Z,212
2016-09-12T04:57:43.540Z,236
2016-09-12T04:58:43.083Z,260
2016-09-12T04:59:43.088Z,292
2016-09-12T05:00:43.083Z,316
2016-09-12T05:01:43.106Z,340
2016-09-12T05:02:43.411Z,372
2016-09-12T05:03:43.107Z,404
2016-09-12T05:04:43.145Z,436
2016-09-12T05:05:43.143Z,464
2016-09-12T05:06:43.359Z,500
2016-09-12T05:07:43.132Z,536
2016-09-12T05:08:43.605Z,568
2016-09-12T05:09:43.422Z,616
2016-09-12T05:10:43.116Z,656
2016-09-12T05:11:43.111Z,696
2016-09-12T05:12:43.112Z,736
2016-09-12T05:13:43.129Z,760
2016-09-12T05:14:43.161Z,808
2016-09-12T05:15:43.149Z,848
2016-09-12T05:16:43.148Z,892
2016-09-12T05:17:43.149Z,932
2016-09-12T05:18:43.156Z,980
2016-09-12T05:19:43.147Z,1028
2016-09-12T05:20:43.463Z,1076
2016-09-12T05:21:43.161Z,1124
2016-09-12T05:22:43.167Z,1172
2016-09-12T05:23:43.191Z,1228
2016-09-12T05:24:43.254Z,1300
2016-09-12T05:25:43.148Z,1496
2016-09-12T05:26:43.173Z,1600
2016-09-12T05:27:43.471Z,1696
2016-09-12T05:28:43.512Z,1788
2016-09-12T05:29:43.154Z,1860
2016-09-12T05:30:43.158Z,1924
2016-09-12T05:31:43.157Z,1964
2016-09-12T05:32:43.164Z,2012
2016-09-12T05:33:43.179Z,2068
2016-09-12T05:34:43.284Z,2104
2016-09-12T05:35:44.111Z,2128
2016-09-12T05:36:43.863Z,2156
2016-09-12T05:37:43.613Z,2184
2016-09-12T05:38:43.167Z,2260
2016-09-12T05:39:43.170Z,2272
2016-09-12T05:40:43.282Z,2320
2016-09-12T05:41:43.522Z,2364
2016-09-12T05:42:43.656Z,2424
2016-09-12T05:43:43.502Z,2472
2016-09-12T05:44:44.727Z,2516
2016-09-12T05:45:43.251Z,2552
2016-09-12T05:46:43.391Z,2592
2016-09-12T05:47:43.213Z,2640
2016-09-12T05:48:43.199Z,2676
2016-09-12T05:49:43.381Z,2712
2016-09-12T05:50:43.196Z,2736
2016-09-12T05:51:43.237Z,2756
2016-09-12T05:52:43.190Z,2784
2016-09-12T05:53:43.240Z,2820
2016-09-12T05:54:43.247Z,2864
2016-09-12T05:55:43.529Z,2904
2016-09-12T05:56:43.242Z,2944
2016-09-12T05:57:43.267Z,2980
2016-09-12T05:58:43.265Z,3024
2016-09-12T05:59:43.477Z,3056
2016-09-12T06:00:43.281Z,3096
2016-09-12T06:01:43.236Z,3132
2016-09-12T06:02:43.646Z,3172
2016-09-12T06:03:43.260Z,3236
2016-09-12T06:04:43.284Z,3248
2016-09-12T06:05:43.228Z,3284
2016-09-12T06:06:43.462Z,3324
2016-09-12T06:07:43.237Z,3336
2016-09-12T06:08:43.370Z,3360
2016-09-12T06:09:55.623Z,3388
2016-09-12T06:10:43.271Z,3420
2016-09-12T06:11:43.399Z,3444
2016-09-12T06:12:43.896Z,3484
2016-09-12T06:13:43.591Z,3520
2016-09-12T06:14:44.012Z,3552
2016-09-12T06:15:43.245Z,3600
2016-09-12T06:16:43.486Z,3648
2016-09-12T06:17:43.250Z,3664
2016-09-12T06:18:43.570Z,3692
2016-09-12T06:19:43.246Z,3748
2016-09-12T06:20:51.356Z,3792
2016-09-12T06:23:11.068Z,3968
2016-09-12T06:24:32.398Z,4144
2016-09-12T06:24:41.157Z,4164
2016-09-12T06:25:41.122Z,4312
2016-09-12T06:26:41.179Z,4468
2016-09-12T06:27:41.119Z,4568
2016-09-12T06:28:41.360Z,4620
2016-09-12T06:29:41.124Z,4660
2016-09-12T06:30:41.139Z,4580
2016-09-12T06:31:41.124Z,4476
2016-09-12T06:32:41.191Z,4452
2016-09-12T06:33:41.139Z,4696
2016-09-12T06:34:41.147Z,4568
2016-09-12T06:35:41.148Z,4716
2016-09-12T06:36:41.225Z,4844
2016-09-12T06:37:41.482Z,5004
2016-09-12T06:38:41.146Z,5284
2016-09-12T06:39:41.149Z,5676
2016-09-12T06:40:52.189Z,6164
2016-09-12T06:42:12.972Z,6988
2016-09-12T06:58:57.943Z,6764
2016-09-12T07:10:38.682Z,7536
2016-09-12T12:38:22.751Z,4880
2016-09-12T12:38:50.635Z,4884
2016-09-12T12:39:50.638Z,4880
2016-09-12T12:40:50.644Z,4888
2016-09-12T12:41:50.650Z,4892
2016-09-12T12:42:50.657Z,4852
2016-09-12T12:43:50.661Z,4860
2016-09-12T12:44:50.658Z,4848
2016-09-12T12:45:50.662Z,4840
2016-09-12T12:46:50.679Z,4836
2016-09-12T12:47:50.703Z,4832
2016-09-12T12:48:50.693Z,4820
2016-09-12T12:49:50.695Z,4796
2016-09-12T12:50:50.699Z,4788
2016-09-12T12:51:50.705Z,4784
2016-09-12T12:52:50.718Z,4768
2016-09-12T12:53:50.735Z,4760
2016-09-12T12:54:50.737Z,4752
2016-09-12T12:55:50.734Z,4748
2016-09-12T12:56:50.746Z,4744
2016-09-12T12:57:50.744Z,4740
2016-09-12T12:58:50.761Z,4728
2016-09-12T12:59:50.763Z,4692
2016-09-12T13:00:50.763Z,4692
2016-09-12T13:01:50.772Z,4692
2016-09-12T13:02:50.777Z,4700
2016-09-12T13:03:50.774Z,4700
2016-09-12T13:04:50.786Z,4692
2016-09-12T13:05:50.800Z,4700
2016-09-12T13:06:50.797Z,4696
2016-09-12T13:07:50.801Z,4692
2016-09-12T13:08:50.808Z,4688
2016-09-12T13:09:50.823Z,4688
2016-09-12T13:10:50.826Z,4692
2016-09-12T13:11:50.835Z,4692
2016-09-12T13:12:50.839Z,4712
2016-09-12T13:13:50.838Z,4696
2016-09-12T13:14:50.845Z,4692
2016-09-12T13:15:50.871Z,4688
2016-09-12T13:16:50.856Z,4684
2016-09-12T13:17:50.873Z,4688
2016-09-12T13:18:51.196Z,4688
2016-09-12T13:19:51.195Z,4672
2016-09-12T13:20:50.896Z,4672
2016-09-12T13:21:50.897Z,4676
2016-09-12T13:22:50.909Z,4664
2016-09-12T13:23:50.903Z,4668
2016-09-12T13:24:50.907Z,4668
2016-09-12T13:25:50.912Z,4660
2016-09-12T13:26:50.927Z,4664
2016-09-12T13:27:50.935Z,4660
2016-09-12T13:28:50.935Z,4648
2016-09-12T13:29:50.940Z,4644
2016-09-12T13:30:50.944Z,4648
2016-09-12T13:31:50.956Z,4652
2016-09-12T13:32:50.964Z,4644
2016-09-12T13:33:50.964Z,4632
2016-09-12T13:34:50.977Z,4592
2016-09-12T13:35:50.983Z,4620
2016-09-12T13:36:50.990Z,4640
2016-09-12T13:37:50.987Z,4644
2016-09-12T13:38:51.054Z,4636
2016-09-12T13:39:51.007Z,4628
2016-09-12T13:40:51.012Z,4632
2016-09-12T13:41:51.017Z,4652
2016-09-12T13:42:51.345Z,4648
2016-09-12T13:43:51.032Z,4644
2016-09-12T13:44:51.036Z,4644
2016-09-12T13:45:51.035Z,4644
2016-09-12T13:46:51.052Z,4636
2016-09-12T13:47:51.056Z,4640
2016-09-12T13:48:51.075Z,4632
2016-09-12T13:49:51.069Z,4636
2016-09-12T13:50:51.083Z,4652
2016-09-12T13:51:51.130Z,4648
2016-09-12T13:52:51.140Z,4636
2016-09-12T13:53:51.094Z,4636
2016-09-12T13:54:51.105Z,4600
2016-09-12T13:55:51.109Z,4612
2016-09-12T13:56:51.423Z,4604
2016-09-12T13:57:51.119Z,4596
2016-09-12T13:58:51.129Z,4588
2016-09-12T13:59:51.133Z,4584
2016-09-12T14:00:51.146Z,4592
2016-09-12T14:01:51.146Z,4588
2016-09-12T14:02:51.150Z,4600
2016-09-12T14:03:51.167Z,4596
2016-09-12T14:04:51.165Z,4596
2016-09-12T14:05:51.171Z,4596
2016-09-12T14:06:51.184Z,4604
2016-09-12T14:07:51.231Z,4592
2016-09-12T14:08:51.206Z,4588
2016-09-12T14:09:51.227Z,4584
2016-09-12T14:10:51.213Z,4584
2016-09-12T14:11:51.221Z,4580
2016-09-12T14:12:51.455Z,4580
2016-09-12T14:13:51.238Z,4576
2016-09-12T14:14:51.243Z,4568
2016-09-12T14:15:51.234Z,4564
2016-09-12T14:16:51.245Z,4560
2016-09-12T14:17:51.248Z,4552
2016-09-12T14:18:51.501Z,4548
2016-09-12T14:19:51.259Z,4548
2016-09-12T14:20:51.278Z,4548
2016-09-12T14:21:51.290Z,4528
2016-09-12T14:22:51.297Z,4516
2016-09-12T14:23:51.294Z,4512
2016-09-12T14:24:51.295Z,4512
2016-09-12T14:25:51.305Z,4504
2016-09-12T14:26:51.306Z,4504
2016-09-12T14:27:51.319Z,4496
2016-09-12T14:28:51.322Z,4488
2016-09-12T14:29:51.392Z,4476
2016-09-12T14:30:51.404Z,4464
2016-09-12T14:31:51.337Z,4460
2016-09-12T14:32:51.351Z,4452
2016-09-12T14:33:51.401Z,4444
2016-09-12T14:34:51.358Z,4448
2016-09-12T14:35:51.387Z,4440
2016-09-12T14:36:51.384Z,4432
2016-09-12T14:37:51.370Z,4420
2016-09-12T14:38:51.542Z,4424
2016-09-12T14:39:51.699Z,4420
2016-09-12T14:40:51.391Z,4412
2016-09-12T14:41:51.399Z,4404
2016-09-12T14:42:51.404Z,4400
2016-09-12T14:43:51.409Z,4400
2016-09-12T14:44:51.421Z,4388
2016-09-12T14:45:51.431Z,4376
2016-09-12T14:46:51.436Z,4364
2016-09-12T14:47:51.442Z,4356
2016-09-12T14:48:51.441Z,4352
2016-09-12T14:49:51.460Z,4348
2016-09-12T14:50:51.468Z,4344
2016-09-12T14:51:51.475Z,4336
2016-09-12T14:52:51.476Z,4328
2016-09-12T14:53:51.476Z,4328
2016-09-12T14:54:51.486Z,4332
2016-09-12T14:55:51.494Z,4324
2016-09-12T14:56:51.813Z,4316
2016-09-12T14:57:51.508Z,4316
2016-09-12T14:58:51.524Z,4312
2016-09-12T14:59:51.551Z,4308
2016-09-12T15:00:51.529Z,4300
2016-09-12T15:01:51.544Z,4292
2016-09-12T15:02:51.562Z,4284
2016-09-12T15:03:51.547Z,4276
2016-09-12T15:04:51.549Z,4264
2016-09-12T15:05:51.551Z,4260
2016-09-12T15:06:51.610Z,4256
2016-09-12T15:07:51.626Z,4240
2016-09-12T15:08:51.577Z,4240
2016-09-12T15:09:51.579Z,4240
2016-09-12T15:10:51.604Z,4232
2016-09-12T15:11:51.594Z,4220
2016-09-12T15:12:51.953Z,4208
2016-09-12T15:13:51.613Z,4204
2016-09-12T15:14:51.642Z,4204
2016-09-12T15:15:51.863Z,4196
2016-09-12T15:16:51.625Z,4180
2016-09-12T15:17:51.631Z,4168
2016-09-12T15:18:51.644Z,4148
2016-09-12T15:19:51.650Z,4116
2016-09-12T15:20:51.646Z,4068
2016-09-12T15:21:51.669Z,4000
2016-09-12T15:22:51.674Z,3912
2016-09-12T15:23:51.678Z,3800
2016-09-12T15:24:51.988Z,3700
2016-09-12T15:25:51.677Z,3608
2016-09-12T15:26:51.684Z,3528
2016-09-12T15:27:51.693Z,3444
2016-09-12T15:28:51.701Z,3384
2016-09-12T15:29:51.708Z,3356
2016-09-12T15:30:51.706Z,3344
2016-09-12T15:31:51.757Z,3348
2016-09-12T15:32:51.735Z,3348
2016-09-12T15:33:51.747Z,3352
2016-09-12T15:34:51.731Z,3288
2016-09-12T15:35:51.752Z,3260
2016-09-12T15:36:52.018Z,3136
2016-09-12T15:37:51.750Z,3044
2016-09-12T15:38:51.812Z,2960
2016-09-12T15:39:51.764Z,2916
2016-09-12T15:40:52.125Z,2812
2016-09-12T15:41:52.117Z,2820
2016-09-12T15:42:52.413Z,2876
2016-09-12T15:43:51.821Z,2672
2016-09-12T15:44:51.882Z,2636
2016-09-12T15:45:52.126Z,2624
2016-09-12T15:46:51.829Z,2596
2016-09-12T15:47:52.089Z,2568
2016-09-12T15:48:51.828Z,2644
2016-09-12T15:49:51.827Z,2648
2016-09-12T15:50:51.835Z,2584
2016-09-12T15:51:51.834Z,2572
2016-09-12T15:52:52.162Z,2600
2016-09-12T15:53:51.852Z,2608
2016-09-12T15:54:51.852Z,2616
2016-09-12T15:55:51.862Z,2616
2016-09-12T15:56:52.192Z,2556
2016-09-12T15:57:51.874Z,2528
2016-09-12T15:58:51.879Z,2532
2016-09-12T15:59:51.895Z,2500
2016-09-12T16:00:51.904Z,2488
2016-09-12T16:01:52.167Z,2492
2016-09-12T16:02:51.912Z,2496
2016-09-12T16:03:52.128Z,2488
2016-09-12T16:04:51.921Z,2472
2016-09-12T16:05:51.921Z,2460
2016-09-12T16:06:51.945Z,2440
2016-09-12T16:07:51.954Z,2420
2016-09-12T16:08:51.949Z,2400
2016-09-12T16:09:51.960Z,2380
2016-09-12T16:10:51.961Z,2356
2016-09-12T16:11:52.286Z,2332
2016-09-12T16:12:51.974Z,2312
2016-09-12T16:13:52.227Z,2296
2016-09-12T16:14:51.981Z,2288
2016-09-12T16:15:51.985Z,2276
2016-09-12T16:16:51.985Z,2264
2016-09-12T16:17:52.400Z,2236
2016-09-12T16:18:51.996Z,2212
2016-09-12T16:19:52.008Z,2220
2016-09-12T16:20:52.013Z,2260
2016-09-12T16:21:52.012Z,2288
2016-09-12T16:22:52.024Z,2292
2016-09-12T16:23:52.029Z,2296
2016-09-12T16:24:52.045Z,2308
2016-09-12T16:25:52.038Z,2320
2016-09-12T16:26:52.047Z,2348
2016-09-12T16:27:52.053Z,2380
2016-09-12T16:28:52.068Z,2392
2016-09-12T16:29:52.062Z,2392
2016-09-12T16:30:52.081Z,2392
2016-09-12T16:31:52.072Z,2392
2016-09-12T16:32:52.081Z,2380
2016-09-12T16:33:52.081Z,2372
2016-09-12T16:34:52.099Z,2364
2016-09-12T16:35:52.104Z,2356
2016-09-12T16:36:52.107Z,2344
2016-09-12T16:37:52.118Z,2332
2016-09-12T16:38:52.280Z,2324
2016-09-12T16:39:52.452Z,2316
2016-09-12T16:40:52.137Z,2304
2016-09-12T16:41:52.152Z,2292
2016-09-12T16:42:52.171Z,2280
2016-09-12T16:43:52.182Z,2264
2016-09-12T16:44:52.174Z,2252
2016-09-12T16:45:52.184Z,2232
2016-09-12T16:46:52.445Z,2212
2016-09-12T16:47:52.241Z,2188
2016-09-12T16:48:52.181Z,2168
2016-09-12T16:49:52.252Z,2136
2016-09-12T16:50:52.200Z,2100
2016-09-12T16:51:52.203Z,2072
2016-09-12T16:52:52.200Z,2036
2016-09-12T16:53:52.537Z,2004
2016-09-12T16:54:52.239Z,1968
2016-09-12T16:55:52.240Z,1936
2016-09-12T16:56:52.221Z,1900
2016-09-12T16:57:52.258Z,1860
2016-09-12T16:58:52.588Z,1824
2016-09-12T16:59:52.925Z,1784
2016-09-12T17:00:52.300Z,1744
2016-09-12T17:01:52.320Z,1704
2016-09-12T17:02:52.578Z,1664
2016-09-12T17:03:52.718Z,1624
2016-09-12T17:04:52.610Z,1588
2016-09-12T17:05:52.590Z,1548
2016-09-12T17:06:52.327Z,1504
2016-09-12T17:07:52.339Z,1464
2016-09-12T17:08:52.320Z,1424
2016-09-12T17:09:52.666Z,1380
2016-09-12T17:10:52.420Z,1336
2016-09-12T17:11:52.315Z,1296
2016-09-12T17:12:52.315Z,1252
2016-09-12T17:13:52.352Z,1212
2016-09-12T17:14:52.331Z,1168
2016-09-12T17:15:52.350Z,1124
2016-09-12T17:16:52.656Z,1084
2016-09-12T17:17:52.346Z,1040
2016-09-12T17:18:52.359Z,1004
2016-09-12T17:19:52.361Z,960
2016-09-12T17:20:52.349Z,916
2016-09-12T17:21:52.374Z,880
2016-09-12T17:22:52.674Z,836
2016-09-12T17:23:52.409Z,800
2016-09-12T17:24:52.383Z,764
2016-09-12T17:25:52.381Z,724
2016-09-12T17:26:52.387Z,692
2016-09-12T17:27:52.394Z,656
2016-09-12T17:28:52.409Z,616
2016-09-12T17:29:52.404Z,584
2016-09-12T17:30:52.414Z,548
2016-09-12T17:31:52.414Z,512
2016-09-12T17:32:52.424Z,476
2016-09-12T17:33:52.737Z,444
2016-09-12T17:34:52.434Z,412
2016-09-12T17:35:52.431Z,380
2016-09-12T17:36:52.449Z,348
2016-09-12T17:37:52.448Z,324
2016-09-12T17:38:52.552Z,296
2016-09-12T17:39:52.454Z,272
2016-09-12T17:40:52.466Z,248
2016-09-12T17:41:52.470Z,228
2016-09-12T17:42:52.469Z,208
2016-09-12T17:43:52.476Z,184
2016-09-12T17:44:52.496Z,164
2016-09-12T17:45:52.528Z,148
2016-09-12T17:46:52.814Z,128
2016-09-12T17:47:52.506Z,112
2016-09-12T17:48:52.537Z,96
2016-09-12T17:49:52.879Z,88
2016-09-12T17:50:52.850Z,76
2016-09-12T17:51:52.531Z,64
2016-09-12T17:52:52.533Z,56
2016-09-12T17:53:52.531Z,48
2016-09-12T17:54:52.531Z,40
2016-09-12T17:55:52.853Z,36
2016-09-12T17:56:52.848Z,32
2016-09-12T17:57:52.560Z,24
2016-09-12T17:58:52.561Z,24
2016-09-12T17:59:52.574Z,16
2016-09-12T18:00:52.565Z,16
2016-09-12T18:01:52.605Z,16
2016-09-12T18:02:52.575Z,12
2016-09-12T18:03:52.585Z,12
2016-09-12T18:04:52.604Z,8
2016-09-12T18:05:52.907Z,4
2016-09-12T18:06:52.842Z,8
2016-09-12T18:07:52.598Z,4
2016-09-12T18:08:52.922Z,4
2016-09-12T18:09:52.602Z,4
2016-09-12T18:10:52.607Z,4
2016-09-12T18:11:52.616Z,0
2016-09-12T18:12:52.619Z,0
2016-09-12T18:13:52.626Z,4
2016-09-12T18:14:52.627Z,4
2016-09-12T18:15:52.645Z,4
2016-09-12T18:16:52.687Z,4
2016-09-12T18:17:52.657Z,0
2016-09-12T18:18:52.678Z,0
2016-09-12T18:19:52.651Z,0
2016-09-12T18:20:52.741Z,0
2016-09-12T18:21:52.994Z,0
2016-09-12T18:22:52.699Z,0
2016-09-12T18:23:53.015Z,0
2016-09-12T18:24:53.035Z,0
2016-09-12T18:25:52.996Z,0
2016-09-12T18:26:52.688Z,0
2016-09-12T18:27:52.702Z,0
2016-09-12T18:28:52.693Z,0
2016-09-12T18:29:53.344Z,0
2016-09-12T18:30:52.946Z,0
2016-09-12T18:31:53.086Z,0
2016-09-12T18:32:52.716Z,0
2016-09-12T18:33:52.716Z,0
2016-09-12T18:34:52.715Z,0
2016-09-12T18:35:53.049Z,0
2016-09-12T18:36:52.745Z,0
2016-09-12T18:37:52.750Z,0
2016-09-12T18:38:53.229Z,0
2016-09-12T18:39:52.770Z,0
2016-09-12T18:40:52.756Z,0
2016-09-12T18:41:52.749Z,0
2016-09-12T18:42:52.753Z,0
2016-09-12T18:43:53.097Z,0
2016-09-12T18:44:53.107Z,0
2016-09-12T18:45:52.786Z,0
2016-09-12T18:46:52.763Z,0
2016-09-12T18:47:52.787Z,0
2016-09-12T18:48:52.779Z,0
2016-09-12T18:49:52.781Z,0
2016-09-12T18:50:53.348Z,0
2016-09-12T18:51:52.795Z,0
2016-09-12T18:52:53.123Z,0
2016-09-12T18:53:53.118Z,0
2016-09-12T18:54:52.806Z,0
2016-09-12T18:55:53.369Z,0
2016-09-12T18:56:52.841Z,0
2016-09-12T18:57:52.869Z,0
2016-09-12T18:58:52.822Z,0
2016-09-12T18:59:52.889Z,0
2016-09-12T19:00:53.463Z,0
2016-09-12T19:01:52.861Z,0
2016-09-12T19:02:52.874Z,0
2016-09-12T19:03:53.516Z,0
2016-09-12T19:04:53.502Z,0
2016-09-12T19:05:52.894Z,0
2016-09-12T19:06:52.882Z,0
2016-09-12T19:07:52.862Z,0
2016-09-12T19:08:53.353Z,0
2016-09-12T19:09:52.879Z,0
2016-09-12T19:10:52.869Z,0
2016-09-12T19:11:52.887Z,0
2016-09-12T19:12:52.905Z,0
2016-09-12T19:13:52.884Z,0
2016-09-12T19:14:52.887Z,0
2016-09-12T19:15:53.205Z,0
2016-09-12T19:16:52.897Z,0
2016-09-12T19:17:53.540Z,0
2016-09-12T19:18:53.230Z,0
2016-09-12T19:19:52.915Z,0
2016-09-12T19:20:52.921Z,0
2016-09-12T19:21:52.923Z,0
2016-09-12T19:22:52.928Z,0
2016-09-12T19:23:53.263Z,0
2016-09-12T19:24:52.929Z,0
2016-09-12T19:25:52.935Z,0
2016-09-12T19:26:52.949Z,0
2016-09-12T19:27:53.255Z,0
2016-09-12T19:28:52.946Z,0
2016-09-12T19:29:52.948Z,0
2016-09-12T19:30:52.958Z,0
2016-09-12T19:31:52.961Z,0
2016-09-12T19:32:53.292Z,0
2016-09-12T19:33:52.974Z,0
2016-09-12T19:34:52.977Z,0
2016-09-12T19:35:52.973Z,0
2016-09-12T19:36:52.988Z,0
2016-09-12T19:37:53.610Z,0
2016-09-12T19:38:53.143Z,0
2016-09-12T19:39:53.319Z,0
2016-09-12T19:40:53.307Z,0
2016-09-12T19:41:53.001Z,0
2016-09-12T19:42:53.008Z,0
2016-09-12T19:43:53.011Z,0
2016-09-12T19:44:53.015Z,0
2016-09-12T19:45:53.329Z,0
2016-09-12T19:46:53.017Z,0
2016-09-12T19:47:53.300Z,0
2016-09-12T19:48:53.345Z,0
2016-09-12T19:49:53.041Z,0
2016-09-12T19:50:53.043Z,0
2016-09-12T19:51:53.075Z,0
2016-09-12T19:52:53.064Z,0
2016-09-12T19:53:53.065Z,0
2016-09-12T19:54:53.362Z,0
2016-09-12T19:55:53.065Z,0